KCWA/CWA METAR and TAF weather

Enter ICAO airport designator
Station Type Date Time Source
KCWA METAR 2019/08/22 01:50 UTC NOAA

KCWA 220150Z 35004KT 10SM SCT060 17/09 A3002


Station Type Date Time Source
KCWA Decoded METAR 2019/08/22 01:50 UTC NOAA

Station name not available
Aug 21, 2019 - 09:50 PM EDT / 2019.08.22 0150 UTC
Wind: from the N (350 degrees) at 5 MPH (4 KT):0
Visibility: 10 mile(s):0
Sky conditions: partly cloudy
Temperature: 62 F (17 C)
Dew Point: 48 F (9 C)
Relative Humidity: 59%
Pressure (altimeter): 30.02 in. Hg (1016 hPa)
ob: KCWA 220150Z 35004KT 10SM SCT060 17/09 A3002
cycle: 2

Station Type Date Time Source
KCWA TAF 2019/08/21 18:30 UTC NOAA

TAF KCWA 211729Z 2118/2218 31012G18KT P6SM SCT050
FM220000 35005KT P6SM SCT250
FM220500 06003KT P6SM BKN060
FM221600 05006KT P6SM SCT035 BKN060

Example: see airport list